Time;durP1;ratioP1;P1;durP2;ratioP2;P2;SDS_P1;SDS_P2;PMS_P1;PMS_P2;Temp;Humidity;BMP_temperature;BMP_pressure;BME280_temperature;BME280_humidity;BME280_pressure;Samples;Min_cycle;Max_cycle;Signal;HPM_P1;HPM_P2
2022/07/29 00:01:20;;;;;;;5.32;2.20;;;14.80;99.90;;;;;;5040589;28;20041;-66
2022/07/29 00:03:46;;;;;;;6.20;2.55;;;14.80;99.90;;;;;;5072935;28;20495;-66
2022/07/29 00:06:12;;;;;;;5.40;2.45;;;14.80;99.90;;;;;;5054228;28;20028;-66
2022/07/29 00:08:37;;;;;;;5.30;2.53;;;14.70;99.90;;;;;;5061149;28;20037;-66
2022/07/29 00:11:03;;;;;;;5.95;2.50;;;14.70;99.90;;;;;;5058045;28;20519;-65
2022/07/29 00:13:29;;;;;;;5.63;2.55;;;14.70;99.90;;;;;;5057621;28;20033;-66
2022/07/29 00:15:55;;;;;;;4.68;2.65;;;14.70;99.90;;;;;;5055573;28;20044;-66
2022/07/29 00:18:20;;;;;;;5.38;2.78;;;14.70;99.90;;;;;;5055405;28;20048;-66
2022/07/29 00:20:46;;;;;;;6.28;2.45;;;14.70;99.90;;;;;;5061919;28;20036;-65
2022/07/29 00:23:11;;;;;;;4.97;2.53;;;14.70;99.90;;;;;;5065465;28;20063;-65
2022/07/29 00:25:37;;;;;;;6.28;2.60;;;14.60;99.90;;;;;;5057880;28;20518;-66
2022/07/29 00:28:03;;;;;;;5.00;2.58;;;14.60;99.90;;;;;;5059800;28;20084;-66
2022/07/29 00:30:28;;;;;;;5.28;2.72;;;14.60;99.90;;;;;;5059390;28;20051;-66
2022/07/29 00:32:54;;;;;;;7.53;2.50;;;14.60;99.90;;;;;;5062536;28;20055;-67
2022/07/29 00:38:03;;;;;;;6.00;2.83;;;14.50;99.90;;;;;;5071231;28;20060;-66
2022/07/29 00:40:29;;;;;;;4.15;2.47;;;14.60;99.90;;;;;;5056605;28;20423;-65
2022/07/29 00:42:55;;;;;;;6.25;2.78;;;14.60;99.90;;;;;;5077022;28;20051;-65
2022/07/29 00:45:21;;;;;;;8.25;2.88;;;14.60;99.90;;;;;;5064607;28;20718;-65
2022/07/29 00:47:47;;;;;;;5.95;3.22;;;14.60;99.90;;;;;;5042371;28;20663;-66
2022/07/29 00:50:13;;;;;;;5.10;2.70;;;14.60;99.90;;;;;;5075143;28;20040;-65
2022/07/29 00:52:41;;;;;;;4.63;2.58;;;14.60;99.90;;;;;;5060904;28;20116;-65
2022/07/29 00:55:12;;;;;;;4.70;2.92;;;14.50;99.90;;;;;;5063881;28;20070;-65
2022/07/29 00:57:38;;;;;;;5.03;2.80;;;14.50;99.90;;;;;;5057498;28;20044;-66
2022/07/29 01:00:07;;;;;;;6.53;2.95;;;14.60;99.90;;;;;;5058418;28;20041;-65
2022/07/29 01:02:33;;;;;;;7.47;3.05;;;14.50;99.90;;;;;;5062679;28;20127;-65
2022/07/29 01:04:59;;;;;;;7.65;3.10;;;14.50;99.90;;;;;;5068134;28;20049;-65
2022/07/29 01:07:26;;;;;;;6.43;2.90;;;14.60;99.90;;;;;;5056368;28;20046;-67
2022/07/29 01:09:53;;;;;;;5.32;2.80;;;14.60;99.90;;;;;;5059921;28;20049;-67
2022/07/29 01:12:25;;;;;;;6.25;2.88;;;14.50;99.90;;;;;;5060094;28;20041;-66
2022/07/29 01:14:53;;;;;;;3.72;2.78;;;14.60;99.90;;;;;;5058863;28;20093;-65
2022/07/29 01:17:31;;;;;;;8.20;3.08;;;14.60;99.90;;;;;;5044165;28;20040;-66
2022/07/29 01:20:22;;;;;;;5.90;3.20;;;14.60;99.90;;;;;;5063149;28;20314;-66
2022/07/29 01:23:07;;;;;;;6.13;3.13;;;14.60;99.90;;;;;;5060355;28;20033;-65
2022/07/29 01:26:06;;;;;;;8.40;3.03;;;14.60;99.90;;;;;;5073008;28;20111;-66
2022/07/29 01:28:56;;;;;;;5.80;3.53;;;14.60;99.90;;;;;;5072461;28;20059;-65
2022/07/29 01:32:06;;;;;;;6.57;3.40;;;14.60;99.90;;;;;;5063926;28;20036;-66
2022/07/29 01:35:14;;;;;;;6.47;3.50;;;14.60;99.90;;;;;;5047746;28;20059;-65
2022/07/29 01:37:48;;;;;;;7.15;3.33;;;14.60;99.90;;;;;;5050327;28;20056;-67
2022/07/29 01:40:55;;;;;;;6.07;3.40;;;14.60;99.90;;;;;;5056898;28;20464;-65
2022/07/29 01:43:26;;;;;;;6.43;3.33;;;14.60;99.90;;;;;;5064840;28;20064;-66
2022/07/29 01:46:06;;;;;;;7.70;3.60;;;14.70;99.90;;;;;;5077622;28;20190;-67
2022/07/29 01:48:37;;;;;;;8.15;3.28;;;14.60;99.90;;;;;;5062426;28;20040;-66
2022/07/29 01:51:05;;;;;;;7.13;3.60;;;14.60;99.90;;;;;;5062370;28;20044;-65
2022/07/29 01:53:36;;;;;;;9.07;3.45;;;14.60;99.90;;;;;;5055409;28;20047;-68
2022/07/29 01:56:03;;;;;;;6.60;3.50;;;14.60;99.90;;;;;;5075696;28;20032;-65
2022/07/29 01:58:31;;;;;;;5.88;3.42;;;14.60;99.90;;;;;;5049630;28;20447;-67
2022/07/29 02:00:59;;;;;;;5.72;3.30;;;14.60;99.90;;;;;;5072959;28;20036;-64
2022/07/29 02:03:27;;;;;;;6.05;3.22;;;14.60;99.90;;;;;;5072452;28;20043;-67
2022/07/29 02:05:56;;;;;;;6.45;3.30;;;14.60;99.90;;;;;;5056243;28;20048;-66
2022/07/29 02:08:23;;;;;;;6.78;3.42;;;14.60;99.90;;;;;;5068144;28;20106;-65
2022/07/29 02:10:49;;;;;;;6.10;3.20;;;14.60;99.90;;;;;;5057556;28;20087;-66
2022/07/29 02:13:18;;;;;;;5.57;3.08;;;14.50;99.90;;;;;;5057822;28;20394;-66
2022/07/29 02:15:45;;;;;;;7.95;3.38;;;14.60;99.90;;;;;;5059294;28;20055;-66
2022/07/29 02:18:20;;;;;;;5.00;3.15;;;14.50;99.90;;;;;;5059896;28;20442;-66
2022/07/29 02:20:50;;;;;;;7.00;3.35;;;14.50;99.90;;;;;;5055087;28;20483;-65
2022/07/29 02:23:23;;;;;;;8.77;3.03;;;14.50;99.90;;;;;;5059099;28;20130;-65
2022/07/29 02:25:53;;;;;;;8.50;3.20;;;14.50;99.90;;;;;;5056558;28;20041;-67
2022/07/29 02:28:19;;;;;;;8.13;2.90;;;14.40;99.90;;;;;;5065937;28;20032;-66
2022/07/29 02:30:47;;;;;;;6.63;3.10;;;14.50;99.90;;;;;;5059773;28;20045;-66
2022/07/29 02:33:15;;;;;;;7.18;2.95;;;14.50;99.90;;;;;;5051767;28;20037;-66
2022/07/29 02:35:43;;;;;;;6.07;3.08;;;14.50;99.90;;;;;;5058823;28;20048;-66
2022/07/29 02:41:02;;;;;;;6.85;2.97;;;14.50;99.90;;;;;;5066154;28;20134;-66
2022/07/29 02:43:31;;;;;;;7.68;3.55;;;14.50;99.90;;;;;;5052709;28;20041;-65
2022/07/29 02:45:58;;;;;;;8.55;3.03;;;14.50;99.90;;;;;;5060618;28;20138;-66
2022/07/29 02:48:32;;;;;;;8.48;3.40;;;14.50;99.90;;;;;;5054272;28;20044;-66
2022/07/29 02:51:11;;;;;;;6.80;2.80;;;14.40;99.90;;;;;;5058680;28;20036;-65
2022/07/29 02:53:40;;;;;;;5.20;2.95;;;14.40;99.90;;;;;;5060233;28;20498;-66
2022/07/29 02:56:14;;;;;;;7.25;2.88;;;14.40;99.90;;;;;;5060427;28;20671;-66
2022/07/29 02:58:51;;;;;;;10.63;3.08;;;14.40;99.90;;;;;;5075071;28;20503;-66
2022/07/29 03:01:22;;;;;;;8.40;2.90;;;14.40;99.90;;;;;;5076714;28;20048;-66
2022/07/29 03:03:50;;;;;;;6.43;3.03;;;14.40;99.90;;;;;;5058031;28;20037;-66
2022/07/29 03:06:17;;;;;;;5.50;2.80;;;14.40;99.90;;;;;;5071628;28;20091;-66
2022/07/29 03:08:44;;;;;;;6.15;2.75;;;14.30;99.90;;;;;;5069431;28;20060;-66
2022/07/29 03:11:11;;;;;;;7.60;2.92;;;14.30;99.90;;;;;;5052922;28;20036;-67
2022/07/29 03:13:37;;;;;;;6.82;2.83;;;14.30;99.90;;;;;;5054991;28;20048;-65
2022/07/29 03:16:04;;;;;;;4.40;3.08;;;14.30;99.90;;;;;;5058006;28;20495;-65
2022/07/29 03:18:30;;;;;;;6.53;2.72;;;14.30;99.90;;;;;;5061026;28;20043;-66
2022/07/29 03:20:56;;;;;;;6.43;2.70;;;14.20;99.90;;;;;;5060558;28;20059;-66
2022/07/29 03:23:23;;;;;;;6.53;2.83;;;14.20;99.90;;;;;;5055848;28;20076;-66
2022/07/29 03:25:52;;;;;;;4.90;2.90;;;14.20;99.90;;;;;;5055127;28;20124;-65
2022/07/29 03:28:18;;;;;;;8.60;2.92;;;14.10;99.90;;;;;;5059005;28;20032;-66
2022/07/29 03:30:44;;;;;;;7.30;3.20;;;14.10;99.90;;;;;;5055317;28;20064;-65
2022/07/29 03:33:09;;;;;;;5.60;2.75;;;14.10;99.90;;;;;;5060609;28;20492;-66
2022/07/29 03:35:35;;;;;;;6.32;3.00;;;14.00;99.90;;;;;;5059559;28;20041;-66
2022/07/29 03:38:01;;;;;;;5.85;2.90;;;14.00;99.90;;;;;;5074421;28;20565;-66
2022/07/29 03:40:38;;;;;;;4.95;2.95;;;14.00;99.90;;;;;;5063301;28;20134;-66
2022/07/29 03:43:06;;;;;;;5.85;2.85;;;14.00;99.90;;;;;;5061477;28;20037;-65
2022/07/29 03:45:34;;;;;;;6.55;2.65;;;13.90;99.90;;;;;;5071069;28;20044;-65
2022/07/29 03:48:06;;;;;;;5.40;2.97;;;13.90;99.90;;;;;;5056768;28;20407;-66
2022/07/29 03:50:33;;;;;;;5.68;3.17;;;13.90;99.90;;;;;;5060078;28;20048;-66
2022/07/29 03:53:00;;;;;;;5.10;2.92;;;13.90;99.90;;;;;;5055523;28;20052;-67
2022/07/29 03:55:28;;;;;;;6.82;3.17;;;13.90;99.90;;;;;;5059575;28;20028;-65
2022/07/29 03:57:56;;;;;;;5.50;2.80;;;13.90;99.90;;;;;;5058235;28;20044;-66
2022/07/29 04:00:27;;;;;;;5.85;3.10;;;13.80;99.90;;;;;;5062619;28;20048;-66
2022/07/29 04:02:52;;;;;;;5.32;2.85;;;13.90;99.90;;;;;;5058352;28;20143;-66
2022/07/29 04:05:18;;;;;;;5.80;2.70;;;13.80;99.90;;;;;;5061041;28;20044;-66
2022/07/29 04:07:47;;;;;;;8.10;3.03;;;13.80;99.90;;;;;;5064152;28;20490;-66
2022/07/29 04:10:15;;;;;;;6.63;3.15;;;13.90;99.90;;;;;;5060221;28;20037;-66
2022/07/29 04:12:41;;;;;;;6.03;3.13;;;13.80;99.90;;;;;;5066752;28;20040;-66
2022/07/29 04:15:07;;;;;;;7.00;3.05;;;13.80;99.90;;;;;;5066087;28;20059;-66
2022/07/29 04:17:33;;;;;;;6.50;3.17;;;13.80;99.90;;;;;;5054521;28;20087;-65
2022/07/29 04:19:58;;;;;;;7.50;2.90;;;13.80;99.90;;;;;;5064948;28;20581;-66
2022/07/29 04:22:24;;;;;;;8.73;3.05;;;13.80;99.90;;;;;;5064156;28;20036;-66
2022/07/29 04:24:50;;;;;;;8.15;3.20;;;13.80;99.90;;;;;;5057161;28;20026;-66
2022/07/29 04:27:15;;;;;;;10.70;2.90;;;13.80;99.90;;;;;;5055266;28;20054;-66
2022/07/29 04:29:41;;;;;;;6.93;2.78;;;13.80;99.90;;;;;;5061370;28;20509;-65
2022/07/29 04:32:07;;;;;;;6.03;2.97;;;13.80;99.90;;;;;;5064463;28;20138;-67
2022/07/29 04:34:32;;;;;;;6.53;3.20;;;13.80;99.90;;;;;;5070717;28;20101;-65
2022/07/29 04:36:58;;;;;;;5.43;2.78;;;13.80;99.90;;;;;;5071350;28;20410;-66
2022/07/29 04:39:24;;;;;;;8.40;3.30;;;13.80;99.90;;;;;;5073480;28;20048;-66
2022/07/29 04:41:50;;;;;;;8.27;3.08;;;13.80;99.90;;;;;;5052675;28;20107;-66
2022/07/29 04:44:16;;;;;;;4.88;3.17;;;13.70;99.90;;;;;;5053020;28;20044;-66
2022/07/29 04:46:41;;;;;;;5.78;2.90;;;13.80;99.90;;;;;;5063402;28;20368;-66
2022/07/29 04:49:07;;;;;;;6.72;2.95;;;13.80;99.90;;;;;;5066750;28;20044;-66
2022/07/29 04:51:33;;;;;;;10.02;3.13;;;13.80;99.90;;;;;;5060290;28;20031;-66
2022/07/29 04:53:59;;;;;;;6.93;3.15;;;13.90;99.90;;;;;;5052337;28;20044;-66
2022/07/29 04:56:25;;;;;;;6.93;3.15;;;13.80;99.90;;;;;;5065389;28;20098;-65
2022/07/29 04:58:53;;;;;;;9.02;3.15;;;13.80;99.90;;;;;;5054870;28;20098;-66
2022/07/29 05:01:19;;;;;;;8.88;2.92;;;13.80;99.90;;;;;;5071776;28;20066;-66
2022/07/29 05:03:45;;;;;;;4.55;2.95;;;13.80;99.90;;;;;;5088819;28;20576;-66
2022/07/29 05:06:11;;;;;;;5.88;2.80;;;13.90;99.90;;;;;;5054181;28;20472;-65
2022/07/29 05:08:36;;;;;;;6.32;2.90;;;14.00;99.90;;;;;;5052126;28;20040;-66
2022/07/29 05:11:03;;;;;;;6.38;3.00;;;14.00;99.90;;;;;;5068373;28;20037;-65
2022/07/29 05:13:29;;;;;;;7.95;3.10;;;14.00;99.90;;;;;;5068506;28;20449;-66
2022/07/29 05:15:54;;;;;;;6.80;3.15;;;14.10;99.90;;;;;;5052876;28;20041;-65
2022/07/29 05:18:20;;;;;;;9.02;3.42;;;14.10;99.90;;;;;;5051281;28;20041;-66
2022/07/29 05:20:46;;;;;;;6.70;3.17;;;14.10;99.90;;;;;;5060567;28;20518;-66
2022/07/29 05:23:14;;;;;;;7.47;3.38;;;14.20;99.90;;;;;;5078604;28;20044;-66
2022/07/29 05:25:40;;;;;;;7.32;3.17;;;14.20;99.90;;;;;;5073019;28;20090;-66
2022/07/29 05:28:05;;;;;;;7.95;2.92;;;14.20;99.90;;;;;;5071520;28;20434;-66
2022/07/29 05:30:31;;;;;;;11.15;3.17;;;14.30;99.90;;;;;;5071272;28;20037;-66
2022/07/29 05:32:56;;;;;;;7.35;3.30;;;14.30;99.90;;;;;;5071769;28;20075;-66
2022/07/29 05:35:22;;;;;;;8.10;3.35;;;14.40;99.90;;;;;;5072241;28;20114;-65
2022/07/29 05:37:48;;;;;;;7.57;3.30;;;14.40;99.90;;;;;;5057312;28;20128;-66
2022/07/29 05:40:13;;;;;;;9.88;3.38;;;14.50;99.90;;;;;;5051457;28;20040;-66
2022/07/29 05:42:39;;;;;;;6.68;2.92;;;14.50;99.90;;;;;;5058314;28;20499;-66
2022/07/29 05:45:05;;;;;;;5.85;3.10;;;14.60;99.90;;;;;;5071481;28;20044;-66
2022/07/29 05:47:31;;;;;;;6.75;3.20;;;14.70;99.90;;;;;;5062946;28;20049;-65
2022/07/29 05:49:56;;;;;;;7.13;3.05;;;14.70;99.90;;;;;;5050680;28;20048;-66
2022/07/29 05:52:22;;;;;;;5.93;3.40;;;14.80;99.90;;;;;;5051415;28;20442;-66
2022/07/29 05:54:48;;;;;;;10.38;3.50;;;14.80;99.90;;;;;;5052329;28;20467;-67
2022/07/29 05:57:22;;;;;;;7.20;3.17;;;14.90;99.90;;;;;;5068044;28;20052;-66
2022/07/29 05:59:49;;;;;;;8.48;3.50;;;14.90;99.90;;;;;;5071128;28;20491;-66
2022/07/29 06:02:15;;;;;;;11.93;3.30;;;15.00;99.90;;;;;;5070364;28;20058;-66
2022/07/29 06:04:41;;;;;;;11.30;3.05;;;15.00;99.90;;;;;;5070454;28;20130;-66
2022/07/29 06:07:07;;;;;;;7.68;3.25;;;15.10;99.90;;;;;;5070185;28;20045;-66
2022/07/29 06:09:33;;;;;;;7.60;3.08;;;15.10;99.90;;;;;;5069548;28;20044;-66
2022/07/29 06:11:59;;;;;;;8.35;3.60;;;15.10;99.90;;;;;;5070427;28;20387;-66
2022/07/29 06:14:26;;;;;;;5.72;3.10;;;15.20;99.90;;;;;;5078815;28;20045;-65
2022/07/29 06:16:52;;;;;;;6.13;3.20;;;15.20;99.90;;;;;;5049693;28;20037;-65
2022/07/29 06:19:18;;;;;;;10.38;3.35;;;15.10;99.90;;;;;;5063109;28;20047;-66
2022/07/29 06:21:45;;;;;;;8.27;3.60;;;15.10;99.90;;;;;;5061819;28;20752;-66
2022/07/29 06:24:12;;;;;;;10.23;3.55;;;15.20;99.90;;;;;;5060898;28;20048;-66
2022/07/29 06:26:39;;;;;;;8.35;3.17;;;15.10;99.90;;;;;;5065077;28;20082;-66
2022/07/29 06:29:05;;;;;;;9.75;3.80;;;15.20;99.90;;;;;;5065163;28;20058;-68
2022/07/29 06:31:30;;;;;;;7.60;3.22;;;15.10;99.90;;;;;;5066950;28;20098;-68
2022/07/29 06:33:56;;;;;;;6.47;3.70;;;15.20;99.90;;;;;;5064527;28;20032;-65
2022/07/29 06:36:22;;;;;;;7.85;3.47;;;15.10;99.90;;;;;;5056666;28;20053;-66
2022/07/29 06:38:47;;;;;;;6.28;3.50;;;15.20;99.90;;;;;;5070048;28;20113;-66
2022/07/29 06:41:15;;;;;;;7.68;3.55;;;15.10;99.90;;;;;;5056186;28;20044;-66
2022/07/29 06:43:42;;;;;;;8.73;3.83;;;15.20;99.90;;;;;;5062760;28;20068;-66
2022/07/29 06:46:14;;;;;;;14.02;3.92;;;15.10;99.90;;;;;;5066457;28;20414;-66
2022/07/29 06:48:41;;;;;;;13.27;3.65;;;15.20;99.90;;;;;;5051664;28;20472;-66
2022/07/29 06:51:08;;;;;;;7.40;3.55;;;15.20;99.90;;;;;;5076832;28;20068;-66
2022/07/29 06:53:33;;;;;;;7.85;3.78;;;15.10;99.90;;;;;;5049520;28;20607;-66
2022/07/29 06:56:00;;;;;;;15.30;4.28;;;15.20;99.90;;;;;;5074666;28;20073;-68
2022/07/29 06:58:27;;;;;;;9.48;3.80;;;15.20;99.90;;;;;;5067765;28;20572;-66
2022/07/29 07:00:54;;;;;;;12.88;3.63;;;15.10;99.90;;;;;;5052068;28;20543;-66
2022/07/29 07:03:19;;;;;;;7.95;3.45;;;15.10;99.90;;;;;;5066351;28;20143;-66
2022/07/29 07:05:46;;;;;;;8.82;3.50;;;15.10;99.90;;;;;;5051400;28;20135;-66
2022/07/29 07:08:12;;;;;;;11.90;3.80;;;15.20;99.90;;;;;;5062784;28;20056;-66
2022/07/29 07:10:40;;;;;;;16.40;3.88;;;15.20;99.90;;;;;;5051937;28;20361;-65
2022/07/29 07:13:06;;;;;;;13.45;4.00;;;15.30;99.90;;;;;;5057439;28;20029;-66
2022/07/29 07:15:32;;;;;;;9.65;3.97;;;15.30;99.90;;;;;;5052643;28;20064;-66
2022/07/29 07:17:57;;;;;;;14.23;4.10;;;15.40;99.90;;;;;;5064883;28;20049;-66
2022/07/29 07:20:24;;;;;;;7.40;4.13;;;15.40;99.90;;;;;;5058883;28;20044;-66
2022/07/29 07:22:49;;;;;;;10.82;4.32;;;15.50;99.90;;;;;;5061170;28;20040;-66
2022/07/29 07:25:17;;;;;;;9.15;4.28;;;15.50;99.90;;;;;;5069010;28;20052;-66
2022/07/29 07:27:43;;;;;;;9.15;3.95;;;15.60;99.90;;;;;;5067468;28;20041;-67
2022/07/29 07:30:34;;;;;;;7.18;3.95;;;15.60;99.90;;;;;;5066882;28;20036;-66
2022/07/29 07:33:00;;;;;;;9.30;3.78;;;15.70;99.90;;;;;;5077105;28;20041;-66
2022/07/29 07:35:27;;;;;;;11.68;4.35;;;15.80;99.90;;;;;;5070343;28;20486;-66
2022/07/29 07:37:53;;;;;;;10.30;4.22;;;15.80;99.90;;;;;;5069272;28;20044;-66
2022/07/29 07:40:19;;;;;;;11.13;4.10;;;15.80;99.90;;;;;;5068817;28;20418;-66
2022/07/29 07:42:44;;;;;;;10.38;4.18;;;15.80;99.90;;;;;;5070405;28;20055;-66
2022/07/29 07:45:11;;;;;;;8.65;3.97;;;15.80;99.90;;;;;;5059599;28;20037;-66
2022/07/29 07:47:37;;;;;;;10.15;4.07;;;15.80;99.90;;;;;;5051374;28;20055;-66
2022/07/29 07:50:06;;;;;;;9.25;4.20;;;15.90;99.90;;;;;;5070701;28;20036;-66
2022/07/29 07:52:33;;;;;;;8.32;3.90;;;15.90;99.90;;;;;;5071135;28;20072;-67
2022/07/29 07:54:59;;;;;;;10.35;4.20;;;15.90;99.90;;;;;;5066803;28;20081;-67
2022/07/29 07:57:25;;;;;;;11.88;4.35;;;16.00;99.90;;;;;;5065514;28;20037;-67
2022/07/29 07:59:51;;;;;;;11.63;4.07;;;16.00;99.90;;;;;;5056505;28;20040;-67
2022/07/29 08:02:16;;;;;;;10.88;4.70;;;16.00;99.90;;;;;;5056559;28;20400;-67
2022/07/29 08:04:42;;;;;;;8.05;4.25;;;16.00;99.90;;;;;;5053175;28;20076;-66
2022/07/29 08:07:08;;;;;;;11.80;4.60;;;16.00;99.90;;;;;;5056418;28;20462;-67
2022/07/29 08:09:35;;;;;;;10.18;4.63;;;16.00;99.90;;;;;;5057883;28;20098;-67
2022/07/29 08:12:05;;;;;;;10.32;4.88;;;16.00;99.90;;;;;;5057085;28;20069;-66
2022/07/29 08:14:31;;;;;;;12.35;4.43;;;16.00;99.90;;;;;;5076250;28;20111;-66
2022/07/29 08:16:57;;;;;;;7.47;4.15;;;16.00;99.90;;;;;;5058382;28;20177;-68
2022/07/29 08:19:23;;;;;;;11.93;4.15;;;16.10;99.90;;;;;;5076061;28;20047;-67
2022/07/29 08:21:48;;;;;;;10.80;4.22;;;16.10;99.90;;;;;;5070818;28;20549;-68
2022/07/29 08:26:59;;;;;;;8.35;4.60;;;16.20;99.90;;;;;;5064280;28;20516;-67
2022/07/29 08:29:24;;;;;;;10.43;4.63;;;16.30;99.90;;;;;;5079368;28;20081;-67
2022/07/29 08:31:50;;;;;;;7.30;4.60;;;16.40;99.90;;;;;;5055284;28;20036;-67
2022/07/29 08:34:15;;;;;;;6.95;4.35;;;16.50;99.90;;;;;;5063741;28;20514;-67
2022/07/29 08:36:41;;;;;;;7.28;4.10;;;16.50;99.90;;;;;;5072666;28;20051;-68
2022/07/29 08:39:07;;;;;;;9.68;4.30;;;16.60;99.90;;;;;;5073923;28;20044;-67
2022/07/29 08:41:33;;;;;;;11.07;4.47;;;16.70;99.90;;;;;;5075551;28;20386;-67
2022/07/29 08:43:59;;;;;;;8.25;4.50;;;16.80;99.90;;;;;;5078077;28;20127;-68
2022/07/29 08:46:25;;;;;;;11.57;4.70;;;16.80;99.90;;;;;;5063625;28;20990;-67
2022/07/29 08:48:51;;;;;;;13.15;5.05;;;16.90;99.90;;;;;;5071088;28;20112;-66
2022/07/29 08:51:20;;;;;;;9.15;4.90;;;17.00;99.90;;;;;;5061326;28;20142;-67
2022/07/29 08:53:48;;;;;;;8.60;4.82;;;17.00;99.90;;;;;;5059716;28;20079;-66
2022/07/29 08:56:17;;;;;;;9.20;4.82;;;17.10;99.90;;;;;;5058684;28;20043;-66
2022/07/29 08:58:42;;;;;;;11.85;5.43;;;17.10;99.90;;;;;;5078567;28;20488;-66
2022/07/29 09:01:10;;;;;;;10.50;5.30;;;17.10;99.90;;;;;;5061195;28;20063;-67
2022/07/29 09:03:39;;;;;;;13.02;5.32;;;17.20;99.90;;;;;;5061989;28;20036;-68
2022/07/29 09:06:05;;;;;;;12.70;5.15;;;17.20;99.90;;;;;;5073027;28;20029;-66
2022/07/29 09:08:32;;;;;;;9.10;5.40;;;17.30;99.90;;;;;;5092909;28;20060;-67
2022/07/29 09:11:00;;;;;;;10.38;5.30;;;17.30;99.90;;;;;;5079416;28;20423;-67
2022/07/29 09:13:26;;;;;;;10.43;5.35;;;17.40;99.90;;;;;;5074142;28;20041;-66
2022/07/29 09:15:52;;;;;;;11.13;5.25;;;17.50;99.90;;;;;;5080726;28;20093;-65
2022/07/29 09:18:35;;;;;;;9.82;4.85;;;17.50;99.90;;;;;;5083037;28;20072;-67
2022/07/29 09:24:07;;;;;;;14.55;5.43;;;17.60;99.90;;;;;;5089197;28;20406;-68
2022/07/29 09:26:37;;;;;;;13.50;4.90;;;17.70;99.90;;;;;;5067595;28;20468;-66
2022/07/29 09:29:16;;;;;;;10.77;4.80;;;17.90;99.90;;;;;;5082295;28;20375;-68
2022/07/29 09:31:47;;;;;;;9.98;4.93;;;18.00;99.90;;;;;;5082570;28;20371;-66
2022/07/29 09:34:16;;;;;;;9.20;4.60;;;17.90;99.90;;;;;;5074420;28;20099;-67
2022/07/29 09:36:47;;;;;;;13.05;5.88;;;18.00;99.90;;;;;;5061362;28;20043;-66
2022/07/29 09:39:14;;;;;;;8.10;5.72;;;18.10;99.90;;;;;;5058918;28;20487;-66
2022/07/29 09:41:54;;;;;;;11.60;5.00;;;18.10;99.90;;;;;;5059037;28;20043;-66
2022/07/29 09:44:21;;;;;;;11.90;4.72;;;18.30;99.90;;;;;;5079901;28;20039;-66
2022/07/29 09:47:02;;;;;;;9.23;4.72;;;18.40;99.90;;;;;;5057602;28;20483;-68
2022/07/29 09:49:28;;;;;;;7.82;5.00;;;18.50;99.90;;;;;;5077910;28;20041;-66
2022/07/29 09:52:08;;;;;;;9.93;5.00;;;18.60;99.90;;;;;;5071122;28;20024;-66
2022/07/29 09:54:36;;;;;;;8.55;4.50;;;18.70;99.90;;;;;;5077743;28;20133;-67
2022/07/29 09:57:04;;;;;;;9.90;4.97;;;18.80;99.90;;;;;;5074906;28;20040;-67
2022/07/29 09:59:30;;;;;;;9.85;4.80;;;18.80;99.90;;;;;;5076889;28;20483;-66
2022/07/29 10:01:56;;;;;;;9.43;4.60;;;18.80;99.90;;;;;;5060775;28;21178;-66
2022/07/29 10:04:21;;;;;;;9.70;4.68;;;18.90;99.90;;;;;;5075114;28;20077;-68
2022/07/29 10:07:01;;;;;;;11.10;4.82;;;18.90;99.90;;;;;;5057800;28;20040;-67
2022/07/29 10:09:28;;;;;;;11.13;4.82;;;19.00;99.90;;;;;;5070229;28;20495;-66
2022/07/29 10:12:13;;;;;;;9.80;4.93;;;19.10;99.90;;;;;;5069046;28;20040;-66
2022/07/29 10:14:40;;;;;;;7.97;4.75;;;19.30;99.90;;;;;;5056296;28;20072;-67
2022/07/29 10:17:07;;;;;;;8.70;4.55;;;19.40;99.90;;;;;;5065388;28;20044;-67
2022/07/29 10:19:34;;;;;;;11.45;4.80;;;19.50;99.90;;;;;;5061556;28;20041;-68
2022/07/29 10:22:03;;;;;;;12.35;5.28;;;19.80;99.90;;;;;;5054116;28;20044;-67
2022/07/29 10:24:31;;;;;;;12.35;5.07;;;19.90;99.90;;;;;;5075043;28;20048;-67
2022/07/29 10:26:58;;;;;;;8.75;4.70;;;20.00;99.90;;;;;;5054366;28;20461;-69
2022/07/29 10:29:24;;;;;;;8.63;5.35;;;20.10;99.90;;;;;;5052418;28;20041;-69
2022/07/29 10:32:02;;;;;;;11.55;4.97;;;20.10;99.90;;;;;;5057928;28;20032;-68
2022/07/29 10:34:49;;;;;;;9.82;5.05;;;20.10;99.90;;;;;;5053720;28;20437;-68
2022/07/29 10:37:23;;;;;;;7.95;4.80;;;20.00;99.90;;;;;;5059900;28;20037;-68
2022/07/29 10:43:17;;;;;;;11.32;4.93;;;20.40;99.90;;;;;;5059121;28;20043;-68
2022/07/29 10:45:44;;;;;;;10.77;5.35;;;20.40;99.90;;;;;;5052780;28;20029;-67
2022/07/29 10:48:10;;;;;;;10.20;4.90;;;20.40;99.90;;;;;;5066233;28;20051;-67
2022/07/29 10:50:55;;;;;;;8.32;4.65;;;20.40;99.90;;;;;;5065594;28;20048;-68
2022/07/29 10:53:24;;;;;;;8.40;5.20;;;20.30;99.90;;;;;;5070696;28;20131;-68
2022/07/29 10:55:52;;;;;;;11.93;5.05;;;20.40;99.90;;;;;;5059818;28;20044;-67
2022/07/29 10:58:23;;;;;;;10.85;5.43;;;20.30;99.90;;;;;;5055658;28;20044;-67
2022/07/29 11:00:51;;;;;;;8.65;5.32;;;20.30;99.90;;;;;;5060343;28;20128;-67
2022/07/29 11:03:51;;;;;;;11.70;5.55;;;20.20;99.90;;;;;;5055311;28;20044;-68
2022/07/29 11:06:17;;;;;;;8.57;4.82;;;20.20;99.90;;;;;;5063904;28;20123;-67
2022/07/29 11:08:43;;;;;;;11.88;5.20;;;20.20;99.90;;;;;;5057190;28;20042;-68
2022/07/29 11:11:27;;;;;;;11.13;5.07;;;20.30;99.90;;;;;;5067240;28;20033;-67
2022/07/29 11:18:02;;;;;;;15.90;5.60;;;20.40;99.90;;;;;;5052993;28;20089;-67
2022/07/29 11:20:48;;;;;;;13.40;5.10;;;20.40;99.90;;;;;;5050561;28;20497;-67
2022/07/29 11:23:17;;;;;;;11.90;5.00;;;20.50;99.90;;;;;;5050766;28;20036;-68
2022/07/29 11:25:43;;;;;;;13.18;5.18;;;20.50;99.90;;;;;;5058573;28;20044;-67
2022/07/29 11:28:19;;;;;;;11.65;5.05;;;20.60;99.90;;;;;;5066158;28;20073;-67
2022/07/29 11:30:53;;;;;;;11.73;4.95;;;20.70;99.90;;;;;;5057528;28;20059;-69
2022/07/29 11:33:32;;;;;;;10.82;4.40;;;20.80;99.90;;;;;;5075124;28;20111;-67
2022/07/29 11:36:16;;;;;;;9.85;4.45;;;21.00;99.90;;;;;;5065729;28;20033;-66
2022/07/29 11:38:41;;;;;;;27.27;5.20;;;21.20;99.90;;;;;;5064106;28;20066;-67
2022/07/29 11:45:06;;;;;;;9.52;4.57;;;21.10;99.90;;;;;;5055037;28;20047;-66
2022/07/29 11:47:34;;;;;;;9.00;4.20;;;21.10;99.90;;;;;;5064724;28;20426;-68
2022/07/29 11:50:02;;;;;;;7.72;4.10;;;21.10;99.90;;;;;;5068305;28;20600;-68
2022/07/29 11:52:47;;;;;;;11.07;4.60;;;21.30;99.90;;;;;;5052273;28;20045;-68
2022/07/29 11:55:18;;;;;;;10.45;4.43;;;21.40;99.90;;;;;;5056169;28;20029;-67
2022/07/29 11:57:55;;;;;;;9.00;4.40;;;21.50;99.90;;;;;;5069514;28;20048;-67
2022/07/29 12:01:17;;;;;;;12.13;5.03;;;21.70;99.90;;;;;;5069663;28;20044;-67
2022/07/29 12:03:42;;;;;;;12.25;4.32;;;21.80;99.90;;;;;;5053167;28;20052;-69
2022/07/29 12:06:13;;;;;;;9.88;4.78;;;21.90;99.90;;;;;;5067260;28;20144;-69
2022/07/29 12:08:42;;;;;;;7.07;4.65;;;22.10;99.90;;;;;;5069931;28;20076;-67
2022/07/29 12:11:18;;;;;;;13.15;5.78;;;22.20;99.90;;;;;;5072553;28;20048;-67
2022/07/29 12:13:44;;;;;;;9.10;5.30;;;22.30;99.90;;;;;;5070975;28;20056;-69
2022/07/29 12:16:09;;;;;;;8.38;4.95;;;22.40;99.90;;;;;;5069695;28;20048;-68
2022/07/29 12:18:35;;;;;;;9.90;4.60;;;22.50;99.90;;;;;;5070758;28;20127;-68
2022/07/29 12:21:04;;;;;;;14.50;5.55;;;22.60;99.90;;;;;;5071769;28;20052;-68
2022/07/29 12:23:33;;;;;;;10.15;5.93;;;22.60;99.90;;;;;;5079812;28;20063;-67
2022/07/29 12:25:59;;;;;;;31.67;5.40;;;22.70;99.90;;;;;;5067640;28;20044;-68
2022/07/29 12:28:25;;;;;;;12.95;4.72;;;22.80;99.90;;;;;;5064815;28;20048;-67
2022/07/29 12:30:51;;;;;;;10.65;5.07;;;22.90;99.90;;;;;;5072963;28;20131;-67
2022/07/29 12:33:27;;;;;;;11.20;5.07;;;22.90;99.90;;;;;;5069698;28;20086;-68
2022/07/29 12:36:01;;;;;;;10.77;4.85;;;23.10;99.90;;;;;;5064895;28;20047;-68
2022/07/29 12:38:27;;;;;;;12.45;5.90;;;23.20;99.90;;;;;;5071590;28;20047;-68
2022/07/29 12:40:54;;;;;;;12.23;4.63;;;23.10;99.90;;;;;;5071315;28;20128;-67
2022/07/29 12:43:24;;;;;;;9.57;5.53;;;23.10;99.90;;;;;;5070103;28;20115;-69
2022/07/29 12:45:54;;;;;;;13.82;5.40;;;23.00;99.90;;;;;;5063988;28;20418;-69
2022/07/29 12:48:36;;;;;;;12.10;5.45;;;22.80;99.90;;;;;;5070314;28;20101;-69
2022/07/29 12:51:04;;;;;;;12.13;5.60;;;22.70;99.90;;;;;;5066765;28;20044;-68
2022/07/29 12:53:30;;;;;;;11.23;5.30;;;22.60;99.90;;;;;;5073389;28;20495;-68
2022/07/29 12:55:59;;;;;;;14.35;5.20;;;22.60;99.90;;;;;;5064536;28;20041;-67
2022/07/29 12:58:35;;;;;;;15.82;5.10;;;22.60;99.90;;;;;;5078379;28;20771;-68
2022/07/29 13:01:19;;;;;;;11.45;5.30;;;22.60;99.90;;;;;;5069093;28;20071;-68
2022/07/29 13:03:47;;;;;;;11.23;4.70;;;22.70;99.90;;;;;;5066505;28;20062;-68
2022/07/29 13:06:31;;;;;;;11.43;5.53;;;22.70;99.90;;;;;;5057717;28;20033;-68
2022/07/29 13:09:07;;;;;;;9.80;5.15;;;22.80;99.90;;;;;;5069790;28;20070;-68
2022/07/29 13:11:41;;;;;;;12.30;5.28;;;22.90;99.90;;;;;;5069068;28;20355;-67
2022/07/29 13:14:12;;;;;;;11.82;4.50;;;23.00;99.90;;;;;;5069890;28;20127;-67
2022/07/29 13:17:02;;;;;;;12.85;5.45;;;23.00;99.90;;;;;;5070287;28;20040;-70